Notre-Dame-du-Portage, Canada
Current Conditions -  °F | °C
As of 3:53 AM on Thursday 23 Oct 2014 (Local Time) from KFVE Reporting Station
Overcast Overcast  
Wind Chill:   Ceiling: 4100
Heat Index:   Visibility: 10mi
Dew Point:   Wind: 12mph
Humidity: 76%   Direction: 40°NE
Pressure: 30.25"   Gusts: NA
Location:  47.76°N, 69.61°W
Report Text: KFVE 230753Z AUTO 04010KT 350V070 10SM BKN041 OVC050 04/00 A3025 RMK AO2 SLP249 T00390000
Loading
Personal Weather Stations






























Interactive Weather Map
Tropical Storm Tracking
New forecast layout! Learn more

10-Day Weather Forecast

Advertisements
Track Severe Weather on mobile